Tan-shui, Taiwan
Current Conditions -  °F | °C
As of 12:00 AM on Saturday 22 Nov 2014 (Local Time) from RCSS Reporting Station
Few Clouds Few Clouds  
Wind Chill: 68°   Ceiling: Unl
Heat Index: 68°   Visibility: 6mi
Dew Point: 64°   Wind: 7mph
Humidity: 88%   Direction: 100°E
Pressure: 30.06"   Gusts: NA
Location:  25.17°N, 121.43°E
Report Text: RCSS 211600Z 10006KT 9999 FEW015 20/18 Q1018 NOSIG RMK A3007
Loading
Personal Weather Stations






























Interactive Weather Map New forecast layout! Learn more

10-Day Weather Forecast

Advertisements
Track Severe Weather on mobile